首页
METAR-TAF:

METAR-TAF

机场 :

匹兹堡国际机场

匹兹堡, 宾夕法尼亚州, 美国

纬度: 40-30-14N, 经度: 080-15-59W, 海拔: 366米

当前天气观测

该预报发布于33分钟前的03:51 UTC
风速7节,风向西南
温度 -2°C
湿度 74%
气压 1017 hPa
能見度: 14.5公里
阴天层高于2300英尺
小雪

METAR: KPIT 190351Z 23007KT 9SM -SN OVC023 M02/M06 A3002 RMK AO2 SLP187 P0000 T10171056

时间: 23:24 (04:24 UTC)

预报

该预报发布于1小时和34分钟前的02:50 UTC
预报有效从19日的 02点(UTC)到 20日的 06点(UTC)
风速7节,风向西转西南
能見度: 10公里
阴天层高于1500英尺
小阵雪
从 19日的 1400点(UTC)
风速8节,风向西南,有时为16节阵风
能見度: 10公里
多云层高于2000英尺
从 19日的 1900点(UTC)
风速9节,风向西转西南,有时为18节阵风
能見度: 10公里
多云层高于3500英尺

TAF: KPIT 190250Z 1902/2006 24007KT P6SM -SHSN OVC015 FM191400 23008G16KT P6SM BKN020 FM191900 25009G18KT P6SM BKN035

超过4000个机场的气象观测和天气预报(METAR&TAF报告)。

可查询的气象台以黄色和红色小点在地图上表示。

将鼠标移到小点上方,可查看气象台名称。

然后点击查看天气观测和预报。

如需切换地图:点击带黑十字的绿色按钮放大地图;点击带横线的绿色按钮缩小地图;或者点击绿色箭头查看邻近地区的地图。


METAR-TAF: